Latest Weather Observations for Parafield

IDS60901

Issued at 8:31 pm CDT Friday 15 December 2017 (issued every 10 minutes, with the page automatically refreshed every 10 minutes)

About weather observations | Map of Adelaide area stations | Latest observations for Adelaide area | Other Formats
Station Details ID: 023013 Name: PARAFIELD AIRPORT Lat: -34.80 Lon: 138.63 Height: 9.5 m
Data from the previous 72 hours. | See also: Recent months at Parafield
Date/Time
CDT
Temp
°C
App
Temp
°C
Dew
Point
°C
Rel
Hum
%
Delta-T
°C
Wind Press
QNH
hPa
Press
MSL
hPa
Rain since
9am
mm
Dir  Spd
km/h
Gust
km/h
Spd
kts
Gust
kts
15/08:30pm 19.3 16.5 11.3 60 4.4 SSW 17 26 9 14 1012.4 1012.4 0.0
15/08:00pm 20.2 16.2 10.3 53 5.3 SW 22 28 12 15 1012.2 1012.2 0.0
15/07:30pm 21.4 17.5 10.9 51 5.8 SW 22 30 12 16 1011.7 1011.7 0.0
15/07:00pm 23.0 19.2 9.8 43 7.2 SW 20 26 11 14 1011.3 1011.3 0.0
15/06:30pm 24.1 20.2 9.3 39 8.0 SW 20 28 11 15 1011.1 1011.1 0.0
15/06:00pm 25.3 21.2 8.7 35 9.0 SW 20 30 11 16 1010.8 1010.8 0.0
15/05:30pm 25.2 20.7 8.7 35 8.9 SW 22 32 12 17 1010.8 1010.8 0.0
15/05:00pm 25.5 21.5 8.9 35 9.0 SSW 20 30 11 16 1010.7 1010.7 0.0
15/04:30pm 26.4 22.3 8.8 33 9.6 SW 20 32 11 17 1010.8 1010.8 0.0
15/04:00pm 25.9 21.3 8.0 32 9.6 SW 22 30 12 16 1011.0 1011.0 0.0
15/03:30pm 26.5 22.6 8.5 32 9.8 SW 19 28 10 15 1011.1 1011.1 0.0
15/03:00pm 26.0 22.2 8.9 34 9.3 SW 19 30 10 16 1011.4 1011.4 0.0
15/02:30pm 25.7 22.5 9.9 37 8.7 WSW 17 26 9 14 1011.7 1011.7 0.0
15/02:00pm 25.6 21.3 9.4 36 8.9 SW 22 30 12 16 1012.0 1012.0 0.0
15/01:30pm 25.5 21.9 9.7 37 8.7 WSW 19 28 10 15 1012.1 1012.1 0.0
15/01:00pm 25.2 22.6 9.5 37 8.6 WSW 13 24 7 13 1012.2 1012.2 0.0
15/12:30pm 24.5 22.7 10.8 42 7.6 WNW 11 17 6 9 1012.5 1012.5 0.0
15/12:00pm 24.1 22.2 10.4 42 7.6 W 11 19 6 10 1012.9 1012.9 0.0
15/11:30am 23.4 21.6 9.4 41 7.6 WSW 9 15 5 8 1013.2 1013.2 0.0
15/11:00am 22.7 20.7 10.2 45 6.8 W 11 22 6 12 1013.4 1013.4 0.0
15/10:30am 21.9 20.3 10.1 47 6.4 NNW 9 15 5 8 1013.7 1013.7 0.0
15/10:00am 21.5 20.3 10.3 49 6.1 NNE 7 11 4 6 1013.7 1013.7 0.0
15/09:30am 20.8 19.7 10.6 52 5.6 NNW 7 11 4 6 1013.9 1013.9 0.0
15/09:00am 20.1 19.4 10.2 53 5.3 WSW 4 9 2 5 1014.0 1014.0 0.0
15/08:30am 19.1 18.1 10.4 57 4.7 NE 6 9 3 5 1014.1 1014.1 0.0
15/08:00am 18.2 17.6 10.3 60 4.2 E 4 7 2 4 1013.9 1013.9 0.0
15/07:30am 17.2 16.3 10.8 66 3.4 ENE 6 7 3 4 1013.8 1013.8 0.0
15/07:00am 15.3 14.4 11.3 77 2.1 NE 7 9 4 5 1013.9 1013.9 0.0
15/06:30am 13.5 12.6 10.7 83 1.5 ENE 6 7 3 4 1013.7 1013.7 0.0
15/06:00am 12.9 11.8 10.6 86 1.2 NE 7 11 4 6 1013.4 1013.4 0.0
15/05:30am 13.1 11.8 10.1 82 1.5 ENE 7 7 4 4 1013.1 1013.1 0.0
15/05:00am 13.0 12.4 10.4 84 1.3 ESE 4 7 2 4 1012.8 1012.8 0.0
15/04:30am 13.2 12.2 10.4 83 1.5 S 6 7 3 4 1012.6 1012.6 0.0
15/04:00am 13.4 12.8 10.4 82 1.6 S 4 6 2 3 1012.6 1012.6 0.0
15/03:30am 13.8 12.8 10.2 79 1.9 SSE 6 7 3 4 1012.5 1012.5 0.0
15/03:00am 14.3 13.3 11.1 81 1.7 SSE 7 9 4 5 1012.5 1012.5 0.0
15/02:30am 14.7 13.0 11.1 79 1.9 SSE 11 15 6 8 1012.7 1012.7 0.0
15/02:00am 14.9 13.6 11.3 79 1.9 SSE 9 13 5 7 1013.0 1013.0 0.0
15/01:30am 15.6 14.1 12.0 79 2.0 SSE 11 17 6 9 1013.2 1013.2 0.0
15/01:00am 15.1 14.2 11.3 78 2.0 SE 7 11 4 6 1013.3 1013.3 0.0
15/12:30am 15.4 13.8 11.4 77 2.1 SE 11 13 6 7 1013.5 1013.5 0.0
15/12:00am 16.0 14.0 11.6 75 2.4 SE 13 15 7 8 1013.6 1013.6 0.0
 
Date/Time
CDT
Temp
°C
App
Temp
°C
Dew
Point
°C
Rel
Hum
%
Delta-T
°C
Wind Press
QNH
hPa
Press
MSL
hPa
Rain since
9am
mm
Dir  Spd
km/h
Gust
km/h
Spd
kts
Gust
kts
14/11:30pm 16.0 14.2 11.0 72 2.7 SE 11 15 6 8 1013.5 1013.5 0.0
14/11:00pm 16.7 14.6 11.2 70 3.0 SE 13 17 7 9 1013.5 1013.5 0.0
14/10:30pm 17.5 15.2 10.6 64 3.7 ESE 13 19 7 10 1013.3 1013.3 0.0
14/10:00pm 17.3 15.0 10.4 64 3.7 SE 13 17 7 9 1013.0 1013.0 0.0
14/09:30pm 18.2 15.9 12.9 71 3.0 SSW 17 20 9 11 1012.8 1012.8 0.0
14/09:00pm 18.5 16.2 13.1 71 3.0 SSW 17 22 9 12 1012.7 1012.7 0.0
14/08:30pm 19.1 15.8 12.8 67 3.5 SSW 22 32 12 17 1012.5 1012.5 0.0
14/08:00pm 19.9 16.2 12.7 63 4.1 SSW 24 32 13 17 1012.3 1012.3 0.0
14/07:30pm 20.8 16.9 12.2 58 4.8 SSW 24 32 13 17 1011.9 1011.9 0.0
14/07:00pm 21.3 16.9 11.6 54 5.4 SSW 26 35 14 19 1011.5 1011.5 0.0
14/06:30pm 22.3 17.7 11.1 49 6.2 SSW 26 35 14 19 1011.2 1011.2 0.0
14/06:00pm 22.6 17.9 10.7 47 6.6 SW 26 33 14 18 1011.1 1011.1 0.0
14/05:30pm 23.9 20.1 11.3 45 7.1 SW 22 30 12 16 1011.1 1011.1 0.0
14/05:00pm 24.2 20.3 10.8 43 7.5 WSW 22 35 12 19 1011.1 1011.1 0.0
14/04:30pm 24.7 21.4 10.9 42 7.7 W 19 26 10 14 1011.4 1011.4 0.0
14/04:00pm 24.2 21.0 11.2 44 7.3 WSW 19 28 10 15 1011.5 1011.5 0.0
14/03:30pm 24.6 21.8 11.5 44 7.4 W 17 26 9 14 1011.7 1011.7 0.0
14/03:00pm 24.3 21.1 11.9 45 7.0 WSW 20 30 11 16 1011.8 1011.8 0.0
14/02:30pm 23.8 20.7 12.1 48 6.7 WSW 20 30 11 16 1011.8 1011.8 0.0
14/02:00pm 23.7 20.1 11.7 47 6.8 W 22 35 12 19 1011.9 1011.9 0.0
14/01:30pm 22.9 19.2 12.8 53 5.8 WSW 24 35 13 19 1012.0 1012.0 0.0
14/01:00pm 23.9 21.4 14.0 54 5.8 SW 20 32 11 17 1011.9 1011.9 0.0
14/12:30pm 23.6 20.8 14.3 56 5.5 SW 22 37 12 20 1012.0 1012.0 0.0
14/12:00pm 22.3 18.8 13.4 57 5.1 SW 24 39 13 21 1011.8 1011.8 0.0
14/11:30am 22.2 20.0 14.8 63 4.4 SSW 20 28 11 15 1011.8 1011.8 0.0
14/11:00am 21.0 17.9 14.6 67 3.7 SSW 24 30 13 16 1011.8 1011.8 0.0
14/10:30am 20.4 18.0 14.5 69 3.4 SW 20 28 11 15 1011.7 1011.7 0.0
14/10:17am 20.5 18.4 15.1 71 3.2 SW 20 26 11 14 1011.7 1011.7 0.0
14/10:00am 20.2 18.2 15.4 74 2.8 SSW 20 26 11 14 1011.7 1011.7 0.0
14/09:30am 20.3 18.5 15.9 76 2.6 SW 20 28 11 15 1011.4 1011.4 0.0
14/09:00am 19.8 18.2 16.1 79 2.2 SW 19 26 10 14 1011.1 1011.1 0.0
14/08:42am 19.7 18.9 16.2 80 2.1 SW 15 20 8 11 1010.9 1010.9 0.0
14/08:30am 19.9 19.9 16.2 79 2.2 SSW 11 19 6 10 1010.7 1010.7 0.0
14/08:29am 20.0 20.1 16.4 80 2.2 SSW 11 15 6 8 1010.7 1010.7 0.0
14/08:00am 19.7 18.3 15.6 77 2.4 SW 17 22 9 12 1010.4 1010.4 0.0
14/07:30am 19.9 18.4 15.3 75 2.7 SSW 17 19 9 10 1010.0 1010.0 0.0
14/07:19am 19.6 17.7 15.3 76 2.5 SW 19 24 10 13 1009.9 1009.9 0.0
14/07:00am 19.6 18.0 15.0 75 2.7 SW 17 24 9 13 1009.6 1009.6 0.0
14/06:44am 19.3 17.4 15.2 77 2.4 SSW 19 26 10 14 1009.2 1009.2 0.0
14/06:30am 19.2 17.2 15.5 79 2.2 SW 20 24 11 13 1009.1 1009.1 0.0
14/06:00am 19.2 18.0 16.2 83 1.8 WSW 17 22 9 12 1008.7 1008.7 0.0
14/05:30am 19.0 19.4 16.2 84 1.7 SW 9 13 5 7 1007.8 1007.8 0.0
14/05:00am 18.9 18.8 16.1 84 1.7 SW 11 17 6 9 1007.7 1007.7 0.0
14/04:30am 18.7 18.3 16.1 85 1.6 SW 13 17 7 9 1007.4 1007.4 0.0
14/04:00am 18.9 17.9 16.5 86 1.4 SSW 17 22 9 12 1007.4 1007.4 0.0
14/03:30am 18.8 16.6 16.8 88 1.2 SW 24 32 13 17 1007.1 1007.1 0.0
14/03:09am 19.2 20.1 18.4 95 0.5 SW 11 13 6 7 1006.7 1006.7 0.0
14/03:00am 18.9 19.6 17.9 94 0.6 SW 11 13 6 7 1006.5 1006.5 0.0
14/02:30am 19.1 19.7 16.9 87 1.3 WSW 9 13 5 7 1006.6 1006.6 0.0
14/02:00am 19.3 19.0 16.5 84 1.7 WSW 13 15 7 8 1006.7 1006.7 0.0
14/01:30am 19.5 19.3 15.8 79 2.2 SW 11 15 6 8 1007.0 1007.0 0.0
14/01:00am 20.1 19.8 15.5 75 2.7 SW 11 13 6 7 1007.3 1007.3 0.0
14/12:30am 20.3 19.2 15.3 73 3.0 SW 15 20 8 11 1007.3 1007.3 0.0
14/12:00am 20.3 19.9 15.3 73 3.0 SSW 11 17 6 9 1007.5 1007.5 0.0
 
Date/Time
CDT
Temp
°C
App
Temp
°C
Dew
Point
°C
Rel
Hum
%
Delta-T
°C
Wind Press
QNH
hPa
Press
MSL
hPa
Rain since
9am
mm
Dir  Spd
km/h
Gust
km/h
Spd
kts
Gust
kts
13/11:30pm 21.3 20.4 15.8 71 3.3 SSW 15 20 8 11 1007.6 1007.6 0.0
13/11:00pm 21.6 20.8 15.2 67 3.8 SSW 13 20 7 11 1007.7 1007.7 0.0
13/10:30pm 21.9 20.9 15.5 67 3.8 SSW 15 22 8 12 1007.5 1007.5 0.0
13/10:00pm 22.0 20.3 15.8 68 3.7 SSW 19 28 10 15 1007.2 1007.2 0.0
13/09:30pm 22.0 20.1 15.8 68 3.7 SSW 20 28 11 15 1007.1 1007.1 0.0
13/09:00pm 22.5 19.1 15.8 66 4.0 SW 28 35 15 19 1006.9 1006.9 0.0
13/08:30pm 23.9 20.0 14.3 55 5.7 SW 28 37 15 20 1006.3 1006.3 0.0
13/08:25pm 24.7 21.9 14.2 52 6.2 WSW 22 33 12 18 1006.3 1006.3 0.0
13/08:00pm 26.1 25.3 12.9 44 7.7 SSW 9 15 5 8 1005.6 1005.6 0.0
13/07:30pm 26.8 23.7 12.1 40 8.5 SSW 20 28 11 15 1005.2 1005.2 0.0
13/07:00pm 26.9 24.0 12.2 40 8.5 S 19 26 10 14 1005.2 1005.2 0.0
13/06:30pm 26.7 24.2 12.4 41 8.3 WSW 17 24 9 13 1005.4 1005.4 0.0
13/06:00pm 28.8 25.8 10.5 32 10.4 SW 17 26 9 14 1005.3 1005.3 0.0
13/05:30pm 29.0 24.9 10.2 31 10.6 WSW 22 28 12 15 1005.1 1005.1 0.0
13/05:00pm 28.9 23.9 9.6 30 10.8 SSW 26 35 14 19 1003.9 1003.9 0.0
13/04:30pm 29.9 25.5 8.9 27 11.7 SW 22 30 12 16 1004.1 1004.1 0.0
13/04:00pm 30.9 24.6 7.4 23 12.8 WSW 30 37 16 20 1004.1 1004.1 0.0
13/03:30pm 31.8 26.3 6.1 20 13.8 SW 24 32 13 17 1003.9 1003.9 0.0
13/03:00pm 31.7 26.5 5.3 19 14.0 SW 22 28 12 15 1003.8 1003.8 0.0
13/02:30pm 32.4 26.9 5.8 19 14.3 SW 24 32 13 17 1004.0 1004.0 0.0
13/02:00pm 34.1 28.4 4.7 16 15.6 WSW 24 33 13 18 1004.0 1004.0 0.0
13/01:30pm 33.7 27.4 3.5 15 15.7 WSW 26 41 14 22 1004.0 1004.0 0.0
13/01:00pm 33.3 27.4 4.1 16 15.3 WSW 24 35 13 19 1003.8 1003.8 0.0
13/12:30pm 33.7 28.0 8.3 21 14.3 WSW 28 35 15 19 1003.7 1003.7 0.0
13/12:13pm 34.2 27.1 6.5 18 15.1 WNW 33 50 18 27 1003.2 1003.2 0.0
13/12:00pm 38.7 30.4 -1.4 8 19.9 NW 32 50 17 27 1002.9 1002.9 0.0
13/11:38am 39.9 31.2 -0.5 8 20.4 NNW 35 54 19 29 1002.9 1002.9 0.0
13/11:30am 39.5 30.0 -0.8 8 20.3 NNW 39 52 21 28 1003.0 1003.0 0.0
13/11:12am 39.4 31.0 -0.9 8 20.2 NNW 33 52 18 28 1003.2 1003.2 0.0
13/11:00am 39.1 30.9 0.5 9 19.7 NNW 33 48 18 26 1003.3 1003.3 0.0
13/10:30am 38.8 30.6 -1.3 8 19.9 N 32 43 17 23 1003.7 1003.7 0.0
13/10:00am 39.8 32.6 1.0 9 20.0 N 28 39 15 21 1003.9 1003.9 0.0
13/09:30am 38.0 31.4 -0.3 9 19.2 NNE 24 35 13 19 1004.1 1004.1 0.0
13/09:00am 34.8 27.9 0.0 11 17.2 NNE 26 35 14 19 1004.6 1004.6 0.0
13/08:30am 33.9 27.3 -0.7 11 16.8 NNE 24 32 13 17 1004.7 1004.7 0.0
13/08:00am 32.7 25.3 -0.4 12 16.0 N 28 35 15 19 1004.8 1004.8 0.0
13/07:30am 32.2 25.2 -0.8 12 15.8 NNE 26 33 14 18 1004.7 1004.7 0.0
13/07:00am 30.7 24.0 -0.8 13 14.9 NNE 24 32 13 17 1004.6 1004.6 0.0
13/06:30am 30.0 22.9 -1.4 13 14.7 NNE 26 35 14 19 1004.7 1004.7 0.0
13/06:00am 29.6 22.6 -0.7 14 14.3 NNE 26 33 14 18 1004.6 1004.6 0.0
13/05:30am 29.7 23.5 -0.6 14 14.3 NNE 22 30 12 16 1004.5 1004.5 0.0
13/05:00am 29.9 23.3 -0.5 14 14.4 NNE 24 35 13 19 1004.4 1004.4 0.0
13/04:30am 29.4 22.7 -0.9 14 14.2 NE 24 30 13 16 1004.6 1004.6 0.0
13/04:00am 29.2 23.4 -0.1 15 13.9 NE 20 28 11 15 1004.9 1004.9 0.0
13/03:30am 28.8 23.0 -0.4 15 13.8 NE 20 28 11 15 1005.2 1005.2 0.0
13/03:00am 28.1 22.5 -0.1 16 13.3 NE 19 22 10 12 1005.7 1005.7 0.0
13/02:30am 29.2 22.9 -1.0 14 14.1 ENE 22 28 12 15 1006.0 1006.0 0.0
13/02:00am 30.1 23.1 -0.3 14 14.4 ENE 26 33 14 18 1006.2 1006.2 0.0
13/01:30am 29.6 23.1 0.2 15 14.1 ENE 24 30 13 16 1006.6 1006.6 0.0
13/01:00am 30.1 23.6 0.6 15 14.2 E 24 33 13 18 1007.2 1007.2 0.0
13/12:30am 30.1 23.6 2.4 17 13.8 E 26 35 14 19 1007.4 1007.4 0.0
13/12:00am 29.4 24.2 3.4 19 13.1 E 20 28 11 15 1007.9 1007.9 0.0
 
Date/Time
CDT
Temp
°C
App
Temp
°C
Dew
Point
°C
Rel
Hum
%
Delta-T
°C
Wind Press
QNH
hPa
Press
MSL
hPa
Rain since
9am
mm
Dir  Spd
km/h
Gust
km/h
Spd
kts
Gust
kts
12/11:30pm 30.1 23.5 4.0 19 13.4 E 28 35 15 19 1007.9 1007.9 0.0
12/11:00pm 30.1 24.1 3.2 18 13.6 E 24 33 13 18 1008.2 1008.2 0.0
12/10:30pm 29.7 23.9 2.1 17 13.7 E 22 28 12 15 1008.5 1008.5 0.0
12/10:00pm 26.0 22.7 4.5 25 10.8 E 11 15 6 8 1008.8 1008.8 0.0
12/09:30pm 26.2 23.1 5.7 27 10.6 E 11 17 6 9 1008.9 1008.9 0.0
12/09:00pm 28.6 26.3 5.5 23 12.0 ESE 7 9 4 5 1008.9 1008.9 0.0

Latest Capital City Observations: Canberra | Sydney | Melbourne | Brisbane | Adelaide | Perth | Hobart | Darwin

Other Formats:

Comma delimited format used in spreadsheet applications
http://www.bom.gov.au/fwo/IDS60901/IDS60901.95677.axf

JavaScript Object Notation format (JSON) in row-major order
http://www.bom.gov.au/fwo/IDS60901/IDS60901.95677.json